Sigas Ingrid — VRCQ6 — position and weather

sailwx.info

Track history (hours):
 
Tides and Currents Weather Stations Pressure Air Temp Water Temp Dewpoint Dewpoint Depression Visibility Wind Speed Wind Dir Waves Ship Positions

Sigas Ingrid

Last reported at 2016-May-01 08:07 UTC. Time now 2016-May-01 15:36 UTC.
Position N 01°16' E 103°24'.

Length 100 m; draft 5.7 m.

Type: Ship (hazmat cat A). MMSI: 477658800.

Date/timePositionNaut miles runAvg speedWind from/ knotsBaromVisibWave heightAir tempDewpointWater temp
2016-May-01 08:07N 01°16' E 103°24'813.2
2016-May-01 07:30N 01°13' E 103°31'1313.3
2016-May-01 06:33N 01°09' E 103°43'1212.3
2016-May-01 05:33N 01°13' E 103°54'  
2016-Apr-26 08:24N 01°15' E 104°06'1113.3
2016-Apr-26 07:33N 01°13' E 103°55'1312.6
2016-Apr-26 06:32N 01°06' E 103°44'1212.1
2016-Apr-26 05:32N 01°07' E 103°32'7814.7
2016-Apr-26 00:16N 01°48' E 102°26'1013.6
2016-Apr-25 23:33N 01°52' E 102°17'  
Track history (hours):
 
Tides and Currents Weather Stations Pressure Air Temp Water Temp Dewpoint Dewpoint Depression Visibility Wind Speed Wind Dir Waves Ship Positions

Sigas Ingrid

Last reported at 2016-May-01 08:07 UTC. Time now 2016-May-01 15:36 UTC.
Position N 01°16' E 103°24'.

Length 100 m; draft 5.7 m.

Type: Ship (hazmat cat A). MMSI: 477658800.

Date/timePositionNaut miles runAvg speedWind from/ knotsBaromVisibWave heightAir tempDewpointWater temp
2016-May-01 08:07N 01°16' E 103°24'813.2
2016-May-01 07:30N 01°13' E 103°31'1313.3
2016-May-01 06:33N 01°09' E 103°43'1212.3
2016-May-01 05:33N 01°13' E 103°54'  
2016-Apr-26 08:24N 01°15' E 104°06'1113.3
2016-Apr-26 07:33N 01°13' E 103°55'1312.6
2016-Apr-26 06:32N 01°06' E 103°44'1212.1
2016-Apr-26 05:32N 01°07' E 103°32'7814.7
2016-Apr-26 00:16N 01°48' E 102°26'1013.6
2016-Apr-25 23:33N 01°52' E 102°17'  

Dump ship's entire track history